Latest Weather Observations for Bickley

IDW60801

Issued at 9:53 am WST Sunday 29 January 2023 (issued every 10 minutes, with the page automatically refreshed every 10 minutes)

About weather observations | Map of weather stations | Latest weather observations for WA | Other Formats
Station Details ID: 009240 Name: BICKLEY Lat: -32.01 Lon: 116.14 Height: 384.0 m
Data from the previous 72 hours. | See also: Recent months at Bickley
Date/Time
WST
Temp
°C
App
Temp
°C
Dew
Point
°C
Rel
Hum
%
Delta-T
°C
Wind Press
QNH
hPa
Press
MSL
hPa
Rain since
9am
mm
Dir  Spd
km/h
Gust
km/h
Spd
kts
Gust
kts
29/09:30am 23.9 19.4 10.2 42 7.7 ENE 24 39 13 21 - - 0.0
29/09:00am 22.9 18.8 10.0 44 7.2 E 22 41 12 22 - - 0.0
29/08:30am 20.9 16.4 10.1 50 5.9 E 24 41 13 22 - - 0.0
29/08:03am 19.7 14.5 10.1 54 5.3 E 28 50 15 27 - - 0.0
29/08:00am 19.3 14.0 10.0 55 5.1 E 28 43 15 23 - - 0.0
29/07:30am 17.5 12.5 9.4 59 4.3 E 26 41 14 22 - - 0.0
29/07:00am 16.0 10.5 9.2 64 3.6 E 28 39 15 21 - - 0.0
29/06:30am 14.7 8.7 8.6 67 3.1 E 30 41 16 22 - - 0.0
29/06:01am 14.2 8.1 8.4 68 3.0 E 30 48 16 26 - - 0.0
29/06:00am 14.2 7.8 8.4 68 3.0 E 32 48 17 26 - - 0.0
29/05:30am 14.3 8.3 8.5 68 3.0 E 30 48 16 26 - - 0.0
29/05:08am 14.4 8.8 8.6 68 3.0 E 28 46 15 25 - - 0.0
29/05:00am 14.5 8.8 8.5 67 3.1 E 28 43 15 23 - - 0.0
29/04:30am 14.8 8.8 8.5 66 3.2 E 30 48 16 26 - - 0.0
29/04:00am 15.1 8.7 8.6 65 3.4 E 32 50 17 27 - - 0.0
29/03:30am 15.6 9.6 8.6 63 3.6 E 30 48 16 26 - - 0.0
29/03:00am 16.0 10.3 8.5 61 3.9 E 28 50 15 27 - - 0.0
29/02:41am 16.4 10.8 8.6 60 4.1 E 28 48 15 26 - - 0.0
29/02:30am 16.6 12.0 8.3 58 4.3 E 22 39 12 21 - - 0.0
29/02:00am 17.3 11.6 8.4 56 4.6 E 28 48 15 26 - - 0.0
29/01:44am 17.7 12.0 8.3 54 4.9 ESE 28 50 15 27 - - 0.0
29/01:30am 18.1 12.8 8.4 53 5.1 E 26 48 14 26 - - 0.0
29/01:00am 18.9 14.0 8.3 50 5.6 E 24 43 13 23 - - 0.0
29/12:30am 19.8 14.4 7.9 46 6.2 E 26 46 14 25 - - 0.0
29/12:01am 21.2 14.7 4.7 34 8.2 ESE 28 50 15 27 - - 0.0
29/12:00am 21.2 15.0 4.3 33 8.4 ESE 26 50 14 27 - - 0.0
 
Date/Time
WST
Temp
°C
App
Temp
°C
Dew
Point
°C
Rel
Hum
%
Delta-T
°C
Wind Press
QNH
hPa
Press
MSL
hPa
Rain since
9am
mm
Dir  Spd
km/h
Gust
km/h
Spd
kts
Gust
kts
28/11:30pm 22.0 16.4 3.6 30 9.0 ESE 22 44 12 24 - - 0.0
28/11:00pm 21.6 16.9 5.1 34 8.3 ESE 19 33 10 18 - - 0.0
28/10:30pm 21.9 17.0 7.0 38 7.8 SE 22 33 12 18 - - 0.0
28/10:00pm 21.0 17.4 9.9 49 6.1 SSE 19 33 10 18 - - 0.0
28/09:30pm 21.0 17.8 9.9 49 6.1 S 17 26 9 14 - - 0.0
28/09:00pm 21.2 18.4 10.1 49 6.1 S 15 26 8 14 - - 0.0
28/08:30pm 21.6 18.8 10.1 48 6.4 SSW 15 22 8 12 - - 0.0
28/08:00pm 22.2 19.5 10.4 47 6.6 SW 15 24 8 13 - - 0.0
28/07:30pm 22.9 20.3 10.7 46 6.9 SW 15 22 8 12 - - 0.0
28/07:00pm 23.8 20.5 10.8 44 7.4 SW 19 28 10 15 - - 0.0
28/06:30pm 25.4 23.4 11.6 42 8.0 SW 13 24 7 13 - - 0.0
28/06:00pm 26.5 23.5 11.8 40 8.6 WSW 19 28 10 15 - - 0.0
28/05:30pm 27.4 24.5 11.0 36 9.5 WSW 17 28 9 15 - - 0.0
28/05:00pm 28.2 24.9 10.9 34 10.0 W 19 28 10 15 - - 0.0
28/04:30pm 29.1 27.5 8.2 27 11.6 NNW 6 9 3 5 - - 0.0
28/04:00pm 29.3 27.9 8.9 28 11.5 N 6 13 3 7 - - 0.0
28/03:30pm 28.6 28.0 8.8 29 11.1 NNE 2 6 1 3 - - 0.0
28/03:00pm 28.6 27.3 9.8 31 10.7 NE 7 15 4 8 - - 0.0
28/02:30pm 27.9 26.6 9.2 31 10.5 SSW 6 13 3 7 - - 0.0
28/02:00pm 27.3 26.2 10.5 35 9.6 ENE 7 15 4 8 - - 0.0
28/01:30pm 27.9 26.8 11.9 37 9.4 E 9 22 5 12 - - 0.0
28/01:00pm 26.6 25.2 12.3 41 8.4 ENE 11 20 6 11 - - 0.0
28/12:30pm 25.8 25.1 11.9 42 8.1 E 7 15 4 8 - - 0.0
28/12:00pm 25.5 23.8 12.4 44 7.7 E 13 30 7 16 - - 0.0
28/11:30am 24.3 21.9 11.3 44 7.4 E 15 30 8 16 - - 0.0
28/11:00am 23.7 20.5 11.4 46 7.0 E 19 32 10 17 - - 0.0
28/10:30am 22.8 19.4 11.2 48 6.6 ESE 20 35 11 19 - - 0.0
28/10:00am 21.3 17.0 10.8 51 5.9 ESE 24 39 13 21 - - 0.0
28/09:30am 20.6 17.6 10.7 53 5.5 ESE 17 32 9 17 - - 0.0
28/09:00am 19.3 15.3 10.6 57 4.8 ESE 22 41 12 22 - - 0.0
28/08:30am 18.9 14.9 10.5 58 4.6 E 22 39 12 21 - - 0.0
28/08:00am 17.3 12.0 10.0 62 3.9 E 28 44 15 24 - - 0.0
28/07:30am 15.3 10.9 8.8 65 3.4 E 22 43 12 23 - - 0.0
28/07:00am 14.2 10.1 8.6 69 2.9 ESE 20 35 11 19 - - 0.0
28/06:30am 13.3 9.1 8.4 72 2.5 ESE 20 33 11 18 - - 0.0
28/06:00am 12.7 8.4 7.8 72 2.5 ESE 20 33 11 18 - - 0.0
28/05:30am 12.8 8.5 7.7 71 2.5 ESE 20 32 11 17 - - 0.0
28/05:00am 13.0 8.3 7.9 71 2.6 E 22 35 12 19 - - 0.0
28/04:30am 13.2 8.9 7.9 70 2.7 ESE 20 32 11 17 - - 0.0
28/04:00am 13.4 8.3 7.8 69 2.8 E 24 44 13 24 - - 0.0
28/03:36am 13.7 7.9 7.9 68 2.9 E 28 46 15 25 - - 0.0
28/03:30am 13.7 8.2 7.7 67 3.0 E 26 44 14 24 - - 0.0
28/03:19am 13.8 8.0 7.8 67 3.0 E 28 50 15 27 - - 0.0
28/03:00am 14.1 8.7 7.9 66 3.1 E 26 44 14 24 - - 0.0
28/02:41am 14.4 8.6 7.9 65 3.3 E 28 48 15 26 - - 0.0
28/02:30am 14.5 9.5 8.0 65 3.3 E 24 43 13 23 - - 0.0
28/02:04am 15.0 9.3 8.3 64 3.4 E 28 52 15 28 - - 0.0
28/02:00am 15.0 9.7 8.3 64 3.4 E 26 41 14 22 - - 0.0
28/01:32am 15.6 9.9 8.4 62 3.7 E 28 48 15 26 - - 0.0
28/01:30am 15.7 10.4 8.4 62 3.8 E 26 46 14 25 - - 0.0
28/01:00am 16.6 10.3 8.8 60 4.1 E 32 50 17 27 - - 0.0
28/12:42am 16.9 11.4 9.1 60 4.1 E 28 48 15 26 - - 0.0
28/12:30am 17.2 12.5 9.1 59 4.3 E 24 39 13 21 - - 0.0
28/12:00am 17.9 12.4 9.3 57 4.6 E 28 50 15 27 - - 0.0
 
Date/Time
WST
Temp
°C
App
Temp
°C
Dew
Point
°C
Rel
Hum
%
Delta-T
°C
Wind Press
QNH
hPa
Press
MSL
hPa
Rain since
9am
mm
Dir  Spd
km/h
Gust
km/h
Spd
kts
Gust
kts
27/11:55pm 18.0 12.6 9.4 57 4.6 E 28 46 15 25 - - 0.0
27/11:30pm 18.2 13.9 9.5 57 4.7 E 22 41 12 22 - - 0.0
27/11:00pm 18.5 14.7 9.8 57 4.7 ESE 20 32 11 17 - - 0.0
27/10:30pm 18.7 15.0 10.3 58 4.6 SE 20 35 11 19 - - 0.0
27/10:00pm 17.7 15.0 10.3 62 4.0 SSE 15 22 8 12 - - 0.0
27/09:30pm 17.9 15.6 10.5 62 4.0 SSW 13 17 7 9 - - 0.0
27/09:00pm 18.2 15.9 10.6 61 4.2 SSW 13 17 7 9 - - 0.0
27/08:30pm 18.6 16.1 10.9 61 4.2 SW 15 22 8 12 - - 0.0
27/08:00pm 19.0 15.8 11.1 60 4.4 SW 19 28 10 15 - - 0.0
27/07:30pm 19.6 16.5 11.6 60 4.5 SW 19 26 10 14 - - 0.0
27/07:00pm 20.3 17.7 12.0 59 4.7 SW 17 28 9 15 - - 0.0
27/06:30pm 21.4 17.8 12.0 55 5.4 SW 22 33 12 18 - - 0.0
27/06:00pm 22.4 18.7 12.6 54 5.7 SW 24 33 13 18 - - 0.0
27/05:30pm 23.4 19.8 13.0 52 6.1 WSW 24 33 13 18 - - 0.0
27/05:00pm 24.0 20.9 13.5 51 6.2 WSW 22 33 12 18 - - 0.0
27/04:30pm 25.6 23.8 14.4 50 6.8 WSW 17 28 9 15 - - 0.0
27/04:00pm 25.5 23.1 14.3 50 6.8 SW 20 32 11 17 - - 0.0
27/03:30pm 26.0 24.1 14.1 47 7.2 SW 17 32 9 17 - - 0.0
27/03:00pm 26.8 24.7 12.5 41 8.4 WSW 15 28 8 15 - - 0.0
27/02:30pm 27.0 24.1 12.3 40 8.7 SW 19 28 10 15 - - 0.0
27/02:00pm 26.8 24.6 13.2 43 8.1 SW 17 28 9 15 - - 0.0
27/01:30pm 26.7 23.2 10.8 37 9.1 SW 20 32 11 17 - - 0.0
27/01:00pm 26.2 23.4 11.2 39 8.6 SSW 17 32 9 17 - - 0.0
27/12:30pm 26.0 23.9 12.5 43 7.9 SW 15 32 8 17 - - 0.0
27/12:00pm 24.8 22.3 12.4 46 7.2 SW 17 30 9 16 - - 0.0
27/11:30am 25.0 22.8 12.2 44 7.5 SSW 15 24 8 13 - - 0.0
27/11:00am 23.5 22.0 11.9 48 6.7 SW 11 26 6 14 - - 0.0
27/10:30am 23.2 20.9 10.3 44 7.2 SSW 13 24 7 13 - - 0.0
27/10:00am 22.7 19.6 8.8 41 7.5 SW 15 28 8 15 - - 0.0
27/09:30am 21.7 18.2 7.2 39 7.6 S 15 24 8 13 - - 0.0
27/09:00am 20.8 18.1 8.8 46 6.4 SSW 13 24 7 13 - - 0.0
27/08:30am 19.9 17.3 9.5 51 5.6 S 13 20 7 11 - - 0.0
27/08:00am 18.6 16.3 10.4 59 4.5 SSW 13 22 7 12 - - 0.0
27/07:30am 16.9 14.9 10.1 64 3.7 S 11 15 6 8 - - 0.0
27/07:00am 16.0 12.8 9.9 67 3.3 SSE 17 24 9 13 - - 0.0
27/06:30am 16.0 12.7 9.7 66 3.3 SSE 17 26 9 14 - - 0.0
27/06:00am 15.4 12.0 9.1 66 3.3 SSE 17 28 9 15 - - 0.0
27/05:30am 15.1 11.6 8.6 65 3.4 S 17 24 9 13 - - 0.0
27/05:00am 15.7 12.1 8.4 62 3.8 S 17 22 9 12 - - 0.0
27/04:30am 16.3 12.4 8.5 60 4.1 SSE 19 26 10 14 - - 0.0
27/04:00am 16.5 13.0 8.7 60 4.1 SSE 17 26 9 14 - - 0.0
27/03:30am 16.9 13.0 8.6 58 4.3 S 19 28 10 15 - - 0.0
27/03:00am 17.3 13.3 8.4 56 4.6 SSE 19 30 10 16 - - 0.0
27/02:30am 17.6 14.1 8.7 56 4.7 SSE 17 28 9 15 - - 0.0
27/02:00am 18.0 14.2 9.1 56 4.7 SSE 19 30 10 16 - - 0.0
27/01:30am 17.4 14.4 10.5 64 3.8 S 17 26 9 14 - - 0.0
27/01:00am 17.5 14.7 11.3 67 3.4 SSW 17 22 9 12 - - 0.0
27/12:30am 17.3 14.8 11.1 67 3.4 SSW 15 20 8 11 - - 0.0
27/12:00am 17.4 16.4 11.0 66 3.5 S 7 9 4 5 - - 0.0
 
Date/Time
WST
Temp
°C
App
Temp
°C
Dew
Point
°C
Rel
Hum
%
Delta-T
°C
Wind Press
QNH
hPa
Press
MSL
hPa
Rain since
9am
mm
Dir  Spd
km/h
Gust
km/h
Spd
kts
Gust
kts
26/11:30pm 17.7 17.2 10.8 64 3.8 ENE 4 15 2 8 - - 0.0
26/11:00pm 18.4 15.4 10.5 60 4.3 SSW 17 26 9 14 - - 0.0
26/10:30pm 18.9 15.7 9.9 56 4.9 SSW 17 24 9 13 - - 0.0
26/10:00pm 19.4 15.7 9.3 52 5.4 SSW 19 26 10 14 - - 0.0
26/09:30pm 19.4 16.0 9.3 52 5.4 SW 17 24 9 13 - - 0.0
26/09:00pm 19.8 17.3 9.7 52 5.5 SW 13 22 7 12 - - 0.0
26/08:30pm 20.6 17.4 9.8 50 5.9 SW 17 24 9 13 - - 0.0
26/08:00pm 21.2 18.7 9.8 48 6.3 SW 13 22 7 12 - - 0.0
26/07:30pm 22.4 18.7 9.6 44 7.0 SSW 19 30 10 16 - - 0.0
26/07:00pm 23.6 20.7 9.6 41 7.7 SW 15 26 8 14 - - 0.0
26/06:30pm 25.3 21.9 9.2 36 8.9 SW 17 28 9 15 - - 0.0
26/06:00pm 26.5 22.7 8.9 33 9.8 SW 19 28 10 15 - - 0.0
26/05:30pm 27.3 23.2 8.7 31 10.3 WSW 20 32 11 17 - - 0.0
26/05:00pm 28.2 24.3 9.5 31 10.6 WSW 20 33 11 18 - - 0.0
26/04:30pm 28.6 24.9 10.3 32 10.5 SW 20 39 11 21 - - 0.0
26/04:00pm 29.0 25.3 10.2 31 10.8 WSW 20 35 11 19 - - 0.0
26/03:30pm 30.1 26.7 11.1 31 11.1 WSW 20 33 11 18 - - 0.0
26/03:00pm 31.8 28.4 10.5 27 12.4 WSW 19 30 10 16 - - 0.0
26/02:30pm 32.1 29.6 9.6 25 13.0 W 13 24 7 13 - - 0.0
26/02:00pm 32.0 29.2 7.0 21 13.8 SW 11 24 6 13 - - 0.0
26/01:30pm 31.7 30.3 8.7 24 13.0 NNE 6 15 3 8 - - 0.0
26/01:00pm 30.5 28.8 8.3 25 12.4 NW 7 15 4 8 - - 0.0
26/12:30pm 30.3 28.9 8.7 26 12.2 E 6 9 3 5 - - 0.0
26/12:00pm 29.1 27.8 9.3 29 11.2 NNE 6 15 3 8 - - 0.0
26/11:30am 28.1 26.8 11.2 35 9.8 ENE 9 15 5 8 - - 0.0
26/11:00am 26.8 25.1 11.3 38 9.0 E 11 20 6 11 - - 0.0
26/10:30am 26.6 25.4 11.5 39 8.8 E 9 17 5 9 - - 0.0
26/10:00am 25.0 23.7 12.6 46 7.3 E 11 20 6 11 - - 0.0

Other formats

Comma delimited format used in spreadsheet applications
http://www.bom.gov.au/fwo/IDW60801/IDW60801.95610.axf

JavaScript Object Notation format (JSON) in row-major order
http://www.bom.gov.au/fwo/IDW60801/IDW60801.95610.json

Data quality

Most of these data are generated automatically and are frequently updated. Quality checks on data are not normally performed. It is possible for incorrect values to appear. Refer to information at About Latest Weather Observations and please check the disclaimer before using these data.